Time;durP1;ratioP1;P1;durP2;ratioP2;P2;SDS_P1;SDS_P2;PMS_P1;PMS_P2;Temp;Humidity;BMP_temperature;BMP_pressure;BME280_temperature;BME280_humidity;BME280_pressure;Samples;Min_cycle;Max_cycle;Signal;HPM_P1;HPM_P2
2023/06/26 04:06:42;;;;;;;;;20.00;16.25;;;;;;;;5762292;39;20001962;-51
2023/06/26 06:09:15;;;;;;;;;10.50;10.00;;;;;;;;6398787;31;5000957;-57
2023/06/26 06:15:17;;;;;;;;;13.00;13.00;;;;;;;;6487851;31;9027;-54
2023/06/26 06:21:20;;;;;;;;;15.00;14.00;;;;;;;;6488819;31;9103;-51
2023/06/26 06:27:23;;;;;;;;;13.75;12.75;;;;;;;;6488941;46;8870;-53
2023/06/26 06:33:26;;;;;;;;;16.00;16.00;;;;;;;;6485377;46;8888;-53
2023/06/26 06:39:30;;;;;;;;;16.25;16.25;;;;;;;;6488437;39;8896;-54
2023/06/26 06:45:33;;;;;;;;;14.50;14.50;;;;;;;;6486935;46;8884;-52
2023/06/26 06:51:40;;;;;;;;;17.00;16.00;;;;;;;;6488250;31;8941;-53
2023/06/26 06:57:44;;;;;;;;;17.25;14.25;;;;;;;;6488745;39;8841;-53
2023/06/26 07:03:46;;;;;;;;;17.25;16.75;;;;;;;;6486280;46;8913;-51
2023/06/26 07:09:51;;;;;;;;;20.50;18.25;;;;;;;;6486597;46;8856;-52
2023/06/26 07:15:53;;;;;;;;;15.75;14.75;;;;;;;;6485526;46;8873;-55
2023/06/26 07:21:56;;;;;;;;;23.00;22.00;;;;;;;;6486161;46;8912;-53
2023/06/26 07:28:00;;;;;;;;;21.75;19.75;;;;;;;;6487584;39;9478;-53
2023/06/26 07:34:03;;;;;;;;;19.50;19.50;;;;;;;;6485793;46;8950;-54
2023/06/26 07:40:06;;;;;;;;;21.00;19.75;;;;;;;;6486989;39;8924;-54
2023/06/26 07:46:09;;;;;;;;;16.00;16.00;;;;;;;;6485807;39;8953;-55
2023/06/26 07:52:11;;;;;;;;;14.50;14.50;;;;;;;;6485867;31;9031;-53
2023/06/26 07:58:14;;;;;;;;;16.25;15.00;;;;;;;;6486001;46;9050;-53
2023/06/26 08:04:19;;;;;;;;;11.75;11.75;;;;;;;;6486133;31;8896;-52
2023/06/26 08:10:22;;;;;;;;;11.75;11.75;;;;;;;;6487477;31;9483;-58
2023/06/26 08:16:26;;;;;;;;;8.75;8.75;;;;;;;;6484897;39;8877;-55
2023/06/26 08:22:30;;;;;;;;;18.25;16.50;;;;;;;;6486290;39;9381;-52
2023/06/26 08:28:33;;;;;;;;;14.75;13.25;;;;;;;;6486121;31;8981;-52
2023/06/26 08:34:36;;;;;;;;;12.50;11.25;;;;;;;;6487228;39;8911;-55
2023/06/26 08:40:42;;;;;;;;;10.00;9.25;;;;;;;;6483946;39;8845;-54
2023/06/26 08:46:45;;;;;;;;;11.25;10.50;;;;;;;;6483758;47;9010;-54
2023/06/26 08:53:20;;;;;;;;;10.75;10.00;;;;;;;;6484949;46;8912;-56
2023/06/26 08:59:23;;;;;;;;;6.00;6.00;;;;;;;;6487086;39;8919;-53
2023/06/26 09:05:31;;;;;;;;;9.00;8.25;;;;;;;;6488008;39;8983;-55
2023/06/26 09:11:35;;;;;;;;;8.00;6.75;;;;;;;;6487866;39;8950;-54
2023/06/26 09:17:42;;;;;;;;;9.00;6.00;;;;;;;;6487897;31;8892;-53
2023/06/26 09:23:45;;;;;;;;;9.75;8.25;;;;;;;;6486883;46;8843;-55
2023/06/26 09:29:48;;;;;;;;;7.75;6.25;;;;;;;;6487228;39;8853;-54
2023/06/26 09:35:50;;;;;;;;;5.00;5.00;;;;;;;;6486558;39;8867;-51
2023/06/26 09:41:57;;;;;;;;;6.75;6.50;;;;;;;;6489295;31;8884;-50
2023/06/26 09:48:02;;;;;;;;;6.50;6.25;;;;;;;;6485058;31;9572;-52
2023/06/26 09:54:06;;;;;;;;;8.25;7.25;;;;;;;;6485700;39;8849;-54
2023/06/26 10:00:12;;;;;;;;;7.25;6.00;;;;;;;;6486000;39;9009;-53
2023/06/26 10:06:21;;;;;;;;;5.50;5.50;;;;;;;;6484499;39;8840;-55
2023/06/26 10:12:31;;;;;;;;;5.50;5.50;;;;;;;;6483066;31;8939;-54
2023/06/26 10:18:38;;;;;;;;;5.50;5.00;;;;;;;;6483977;39;9521;-56
2023/06/26 10:24:44;;;;;;;;;3.75;3.75;;;;;;;;6485173;31;8848;-55
2023/06/26 10:30:52;;;;;;;;;3.00;3.00;;;;;;;;6485930;39;8959;-55
2023/06/26 10:37:04;;;;;;;;;4.50;4.50;;;;;;;;6487761;39;9039;-56
2023/06/26 10:43:08;;;;;;;;;4.00;4.00;;;;;;;;6486934;39;8935;-54
2023/06/26 10:49:12;;;;;;;;;9.75;8.50;;;;;;;;6490086;31;9029;-54
2023/06/26 10:55:15;;;;;;;;;6.50;6.25;;;;;;;;6490217;39;8892;-50
2023/06/26 11:01:22;;;;;;;;;10.25;9.75;;;;;;;;6488858;39;9186;-55
2023/06/26 11:07:27;;;;;;;;;5.50;4.50;;;;;;;;6488047;39;8876;-53
2023/06/26 11:13:35;;;;;;;;;7.00;5.50;;;;;;;;6483350;39;8941;-57
2023/06/26 11:19:43;;;;;;;;;7.00;7.00;;;;;;;;6485893;39;9457;-54
2023/06/26 11:25:47;;;;;;;;;9.75;9.50;;;;;;;;6487916;39;9542;-53
2023/06/26 11:31:59;;;;;;;;;5.75;5.75;;;;;;;;6489175;39;10100;-53
2023/06/26 11:38:06;;;;;;;;;4.75;4.75;;;;;;;;6485052;39;8973;-54
2023/06/26 11:44:10;;;;;;;;;5.00;5.00;;;;;;;;6486257;46;8987;-57
2023/06/26 11:50:20;;;;;;;;;5.75;5.75;;;;;;;;6485111;46;8890;-55
2023/06/26 11:56:22;;;;;;;;;7.00;7.00;;;;;;;;6488281;39;8979;-55
2023/06/26 12:02:25;;;;;;;;;5.50;5.50;;;;;;;;6488485;46;8923;-60
2023/06/26 12:08:30;;;;;;;;;5.25;5.25;;;;;;;;6485766;31;9023;-52
2023/06/26 12:14:33;;;;;;;;;5.00;4.50;;;;;;;;6486332;46;8895;-53
2023/06/26 12:20:40;;;;;;;;;8.50;8.50;;;;;;;;6489078;31;9587;-51
2023/06/26 12:26:54;;;;;;;;;7.50;7.50;;;;;;;;6488048;39;9466;-53
2023/06/26 12:32:57;;;;;;;;;7.25;7.25;;;;;;;;6484988;39;8975;-53
2023/06/26 12:39:00;;;;;;;;;9.75;9.00;;;;;;;;6486649;31;8880;-52
2023/06/26 12:45:11;;;;;;;;;8.25;7.25;;;;;;;;6487579;31;8884;-55
2023/06/26 12:51:31;;;;;;;;;7.75;6.75;;;;;;;;6488650;39;8962;-52
2023/06/26 12:57:35;;;;;;;;;13.00;10.00;;;;;;;;6487491;31;9719;-54
2023/06/26 13:03:37;;;;;;;;;7.75;7.25;;;;;;;;6487782;47;8851;-54
2023/06/26 13:09:41;;;;;;;;;6.50;6.25;;;;;;;;6488856;39;8926;-53
2023/06/26 13:15:43;;;;;;;;;5.50;5.50;;;;;;;;6486550;39;8990;-52
2023/06/26 13:21:46;;;;;;;;;5.25;5.25;;;;;;;;6485850;47;8868;-54
2023/06/26 13:27:50;;;;;;;;;6.75;6.75;;;;;;;;6488063;39;8874;-51
2023/06/26 13:33:58;;;;;;;;;4.50;4.50;;;;;;;;6532073;36;9571;-54
2023/06/26 13:40:02;;;;;;;;;5.50;5.50;;;;;;;;6490039;39;8875;-52
2023/06/26 13:46:05;;;;;;;;;7.00;7.00;;;;;;;;6490729;31;8952;-50
2023/06/26 13:52:07;;;;;;;;;8.00;7.50;;;;;;;;6488910;39;8887;-51
2023/06/26 13:58:11;;;;;;;;;6.25;6.25;;;;;;;;6490437;39;8940;-50
2023/06/26 14:04:13;;;;;;;;;6.75;6.75;;;;;;;;6490785;39;8872;-49
2023/06/26 14:10:18;;;;;;;;;6.75;6.75;;;;;;;;6489788;39;8988;-52
2023/06/26 14:16:20;;;;;;;;;10.50;9.25;;;;;;;;6490317;39;9094;-54
2023/06/26 14:22:24;;;;;;;;;5.50;5.50;;;;;;;;6490099;39;8900;-48
2023/06/26 14:28:27;;;;;;;;;6.50;6.50;;;;;;;;6490579;46;8867;-52
2023/06/26 14:34:30;;;;;;;;;9.00;8.75;;;;;;;;6488730;39;8974;-50
2023/06/26 14:40:33;;;;;;;;;7.75;7.75;;;;;;;;6487904;39;8938;-52
2023/06/26 14:46:40;;;;;;;;;9.00;9.00;;;;;;;;6490080;39;8892;-53
2023/06/26 14:52:42;;;;;;;;;11.00;10.50;;;;;;;;6488697;46;8835;-53
2023/06/26 14:58:46;;;;;;;;;8.00;8.00;;;;;;;;6489223;39;8966;-51
2023/06/26 15:04:52;;;;;;;;;9.75;9.50;;;;;;;;6489177;46;8871;-51
2023/06/26 15:10:54;;;;;;;;;9.50;9.50;;;;;;;;6489012;39;9489;-50
2023/06/26 15:16:57;;;;;;;;;8.75;7.25;;;;;;;;6308516;46;10000637;-53
2023/06/26 15:22:59;;;;;;;;;5.75;4.75;;;;;;;;6489337;31;8931;-51
2023/06/26 15:29:02;;;;;;;;;12.75;11.25;;;;;;;;6488260;39;9282;-52
2023/06/26 15:35:07;;;;;;;;;12.00;11.00;;;;;;;;6489475;39;8920;-53
2023/06/26 15:41:10;;;;;;;;;8.75;8.50;;;;;;;;6488959;46;8991;-51
2023/06/26 15:47:12;;;;;;;;;8.75;8.75;;;;;;;;6489341;39;8951;-48
2023/06/26 15:53:17;;;;;;;;;8.75;8.75;;;;;;;;6489466;39;9042;-52
2023/06/26 15:59:20;;;;;;;;;11.75;10.75;;;;;;;;6489096;39;8936;-53
2023/06/26 16:05:23;;;;;;;;;10.75;9.25;;;;;;;;6487885;39;9491;-54
2023/06/26 16:11:27;;;;;;;;;14.00;14.00;;;;;;;;6487991;39;8891;-52
2023/06/26 16:17:29;;;;;;;;;9.00;9.00;;;;;;;;6487114;39;8919;-50
2023/06/26 16:23:32;;;;;;;;;13.00;12.00;;;;;;;;6488333;39;8919;-50
2023/06/26 16:29:34;;;;;;;;;8.00;8.00;;;;;;;;6489694;31;8859;-50
2023/06/26 16:35:37;;;;;;;;;13.50;13.50;;;;;;;;6488564;47;8864;-52
2023/06/26 16:41:41;;;;;;;;;11.50;10.25;;;;;;;;6489270;39;8867;-50
2023/06/26 16:47:43;;;;;;;;;12.25;12.00;;;;;;;;6487699;31;8885;-51
2023/06/26 16:53:47;;;;;;;;;13.25;13.25;;;;;;;;6489995;39;9594;-52
2023/06/26 16:59:49;;;;;;;;;14.50;14.50;;;;;;;;6488584;47;8916;-51
2023/06/26 17:05:51;;;;;;;;;16.25;16.25;;;;;;;;6487163;39;8958;-51
2023/06/26 17:11:59;;;;;;;;;14.00;14.00;;;;;;;;6020792;54;10011731;-53
2023/06/26 17:18:01;;;;;;;;;14.75;13.75;;;;;;;;6491012;46;8871;-53
2023/06/26 17:24:04;;;;;;;;;11.00;11.00;;;;;;;;6490103;31;8869;-51
2023/06/26 17:30:08;;;;;;;;;17.00;14.00;;;;;;;;6490552;39;8828;-49
2023/06/26 17:36:11;;;;;;;;;12.25;11.00;;;;;;;;6489836;46;8911;-51
2023/06/26 17:42:15;;;;;;;;;14.00;13.00;;;;;;;;6490218;46;9095;-51
2023/06/26 17:48:17;;;;;;;;;11.00;10.50;;;;;;;;6489647;39;8841;-52
2023/06/26 17:54:19;;;;;;;;;13.00;12.00;;;;;;;;6490077;39;9692;-51
2023/06/26 18:00:21;;;;;;;;;8.00;8.00;;;;;;;;6488810;39;8897;-51
2023/06/26 18:06:24;;;;;;;;;7.25;6.25;;;;;;;;6490270;46;8891;-50
2023/06/26 18:12:27;;;;;;;;;7.00;7.00;;;;;;;;6491342;39;9675;-48
2023/06/26 18:18:29;;;;;;;;;11.25;11.25;;;;;;;;6490172;39;8937;-52
2023/06/26 18:24:31;;;;;;;;;10.50;10.00;;;;;;;;6489837;39;8869;-49
2023/06/26 18:30:35;;;;;;;;;15.00;11.67;;;;;;;;6490517;39;8907;-52
2023/06/26 18:36:37;;;;;;;;;14.50;13.25;;;;;;;;6490036;46;8904;-51
2023/06/26 18:42:42;;;;;;;;;11.33;11.33;;;;;;;;6489911;39;8840;-52
2023/06/26 18:48:46;;;;;;;;;11.00;11.00;;;;;;;;6488426;39;9007;-50
2023/06/26 18:54:49;;;;;;;;;11.50;10.00;;;;;;;;6489507;46;8971;-50
2023/06/26 19:00:51;;;;;;;;;13.25;11.50;;;;;;;;6488857;46;8975;-49
2023/06/26 19:06:54;;;;;;;;;12.50;11.75;;;;;;;;6489975;46;8867;-49
2023/06/26 19:12:56;;;;;;;;;11.50;10.75;;;;;;;;6490513;31;8888;-49
2023/06/26 19:19:00;;;;;;;;;13.25;13.25;;;;;;;;6488839;46;8887;-51
2023/06/26 19:25:03;;;;;;;;;14.25;13.50;;;;;;;;6488047;46;8896;-52
2023/06/26 19:31:06;;;;;;;;;11.75;11.75;;;;;;;;6489757;46;8913;-52
2023/06/26 19:37:09;;;;;;;;;14.00;14.00;;;;;;;;6489227;39;9750;-50
2023/06/26 19:43:11;;;;;;;;;9.75;9.50;;;;;;;;6489452;39;9022;-50
2023/06/26 19:49:14;;;;;;;;;12.50;12.00;;;;;;;;6487861;46;8912;-52
2023/06/26 19:55:17;;;;;;;;;15.75;13.75;;;;;;;;6489546;31;9070;-51
2023/06/26 20:01:19;;;;;;;;;12.25;11.00;;;;;;;;6490250;46;8900;-52
2023/06/26 20:07:21;;;;;;;;;14.50;11.50;;;;;;;;6489248;46;8859;-49
2023/06/26 20:13:24;;;;;;;;;10.50;10.50;;;;;;;;6488672;46;8872;-52
2023/06/26 20:19:27;;;;;;;;;14.75;13.25;;;;;;;;6489058;31;8891;-49
2023/06/26 20:25:29;;;;;;;;;13.25;12.75;;;;;;;;6488310;39;9447;-51
2023/06/26 20:31:32;;;;;;;;;13.25;13.00;;;;;;;;6489804;39;8879;-51
2023/06/26 20:37:34;;;;;;;;;14.75;14.75;;;;;;;;6489882;39;9532;-51
2023/06/26 20:43:36;;;;;;;;;15.00;13.25;;;;;;;;6489853;31;8887;-52
2023/06/26 20:49:40;;;;;;;;;15.00;14.25;;;;;;;;6490330;39;8959;-54
2023/06/26 20:55:42;;;;;;;;;14.00;13.75;;;;;;;;6490935;39;8977;-48
2023/06/26 21:01:45;;;;;;;;;12.75;12.00;;;;;;;;6491607;39;8924;-50
2023/06/26 21:07:47;;;;;;;;;13.00;12.25;;;;;;;;6490588;46;8855;-52
2023/06/26 21:13:50;;;;;;;;;12.75;12.75;;;;;;;;6491833;39;8849;-50
2023/06/26 21:19:52;;;;;;;;;14.00;14.00;;;;;;;;6489790;31;8879;-51
2023/06/26 21:25:54;;;;;;;;;13.75;13.75;;;;;;;;6491644;31;8872;-53
2023/06/26 21:31:57;;;;;;;;;16.25;16.25;;;;;;;;6490553;39;8918;-50
2023/06/26 21:38:00;;;;;;;;;14.25;12.75;;;;;;;;6490703;46;8920;-51
2023/06/26 21:44:02;;;;;;;;;14.00;14.00;;;;;;;;6490399;46;8880;-50
2023/06/26 21:50:05;;;;;;;;;21.50;18.25;;;;;;;;6490003;31;8896;-50
2023/06/26 21:56:08;;;;;;;;;16.00;13.50;;;;;;;;6490255;31;8915;-53
2023/06/26 22:02:10;;;;;;;;;17.75;13.50;;;;;;;;6491303;39;9664;-51
2023/06/26 22:08:12;;;;;;;;;13.25;13.25;;;;;;;;6489455;46;8953;-49
2023/06/26 22:14:15;;;;;;;;;16.25;13.50;;;;;;;;6490942;39;8919;-48
2023/06/26 22:20:18;;;;;;;;;14.50;13.00;;;;;;;;6490277;46;8978;-48
2023/06/26 22:26:20;;;;;;;;;14.50;13.50;;;;;;;;6490107;46;8893;-49
2023/06/26 22:32:23;;;;;;;;;15.00;11.00;;;;;;;;6490891;31;8874;-49
2023/06/26 22:38:25;;;;;;;;;13.25;12.25;;;;;;;;6489549;46;8877;-50
2023/06/26 22:44:27;;;;;;;;;12.25;11.00;;;;;;;;6490036;46;8879;-49
2023/06/26 22:50:29;;;;;;;;;15.33;13.67;;;;;;;;6490062;39;8860;-48
2023/06/26 22:56:33;;;;;;;;;12.50;12.50;;;;;;;;6491171;39;9508;-53
2023/06/26 23:02:55;;;;;;;;;13.75;12.00;;;;;;;;6490152;46;8908;-49
2023/06/26 23:08:57;;;;;;;;;10.25;10.25;;;;;;;;6490460;39;9443;-49
2023/06/26 23:15:03;;;;;;;;;11.00;10.50;;;;;;;;6490134;39;8861;-48
2023/06/26 23:21:08;;;;;;;;;13.00;12.25;;;;;;;;6489108;39;9487;-50
2023/06/26 23:27:10;;;;;;;;;13.50;13.00;;;;;;;;6489876;39;8829;-50
2023/06/26 23:33:13;;;;;;;;;13.50;11.75;;;;;;;;6490130;39;8876;-47
2023/06/26 23:39:23;;;;;;;;;10.50;10.50;;;;;;;;6489897;46;9109;-48
2023/06/26 23:45:25;;;;;;;;;11.00;11.00;;;;;;;;6489821;46;8851;-49
2023/06/26 23:51:28;;;;;;;;;13.50;13.25;;;;;;;;6490274;39;9272;-49
2023/06/26 23:57:30;;;;;;;;;10.00;10.00;;;;;;;;6489229;39;8955;-48
